createdAt,value
2022-11-23T00:01:15.000Z,989.7
2022-11-23T00:02:31.000Z,989.7
2022-11-23T00:03:46.000Z,989.7
2022-11-23T00:05:03.000Z,989.7
2022-11-23T00:06:19.000Z,989.7
2022-11-23T00:07:35.000Z,989.7
2022-11-23T00:08:51.000Z,989.7
2022-11-23T00:10:07.000Z,989.7
2022-11-23T00:11:24.000Z,989.7
2022-11-23T00:12:40.000Z,989.8
2022-11-23T00:13:56.000Z,989.7
2022-11-23T00:15:12.000Z,989.7
2022-11-23T00:16:28.000Z,989.7
2022-11-23T00:17:44.000Z,989.7
2022-11-23T00:19:01.000Z,989.7
2022-11-23T00:20:16.000Z,989.7
2022-11-23T00:21:32.000Z,989.7
2022-11-23T00:22:48.000Z,989.7
2022-11-23T00:24:04.000Z,989.7
2022-11-23T00:25:21.000Z,989.8
2022-11-23T00:26:37.000Z,989.8
2022-11-23T00:27:53.000Z,989.7
2022-11-23T00:29:09.000Z,989.7
2022-11-23T00:30:25.000Z,989.7
2022-11-23T00:31:42.000Z,989.7
2022-11-23T00:32:58.000Z,989.7
2022-11-23T00:34:14.000Z,989.7
2022-11-23T00:35:30.000Z,989.7
2022-11-23T00:36:45.000Z,989.7
2022-11-23T00:38:02.000Z,989.8
2022-11-23T00:39:18.000Z,989.7
2022-11-23T00:40:34.000Z,989.8
2022-11-23T00:41:50.000Z,989.7
2022-11-23T00:43:06.000Z,989.8
2022-11-23T00:44:22.000Z,989.8
2022-11-23T00:45:39.000Z,989.8
2022-11-23T00:46:55.000Z,989.8
2022-11-23T00:48:11.000Z,989.8
2022-11-23T00:49:27.000Z,989.8
2022-11-23T00:50:43.000Z,989.8
2022-11-23T00:52:00.000Z,989.8
2022-11-23T00:53:15.000Z,989.8
2022-11-23T00:54:31.000Z,989.8
2022-11-23T00:55:47.000Z,989.8
2022-11-23T00:57:03.000Z,989.8
2022-11-23T00:58:20.000Z,989.8
2022-11-23T00:59:36.000Z,989.7
2022-11-23T01:00:52.000Z,989.8
2022-11-23T01:02:08.000Z,989.9
2022-11-23T01:03:24.000Z,989.9
2022-11-23T01:04:41.000Z,989.9
2022-11-23T01:05:57.000Z,989.8
2022-11-23T01:07:13.000Z,989.8
2022-11-23T01:08:29.000Z,989.9
2022-11-23T01:09:44.000Z,989.9
2022-11-23T01:11:00.000Z,989.8
2022-11-23T01:12:17.000Z,989.9
2022-11-23T01:13:33.000Z,989.9
2022-11-23T01:14:49.000Z,989.9
2022-11-23T01:16:05.000Z,989.9
2022-11-23T01:17:21.000Z,989.9
2022-11-23T01:18:38.000Z,989.9
2022-11-23T01:19:54.000Z,989.9
2022-11-23T01:21:10.000Z,989.9
2022-11-23T01:22:26.000Z,989.9
2022-11-23T01:23:42.000Z,989.9
2022-11-23T01:24:59.000Z,989.8
2022-11-23T01:26:14.000Z,989.8
2022-11-23T01:27:30.000Z,989.9
2022-11-23T01:28:46.000Z,989.9
2022-11-23T01:30:02.000Z,989.9
2022-11-23T01:31:19.000Z,990
2022-11-23T01:32:35.000Z,989.9
2022-11-23T01:33:51.000Z,990
2022-11-23T01:35:07.000Z,990
2022-11-23T01:36:23.000Z,990
2022-11-23T01:37:39.000Z,989.9
2022-11-23T01:38:56.000Z,990
2022-11-23T01:40:12.000Z,990.1
2022-11-23T01:41:28.000Z,990.1
2022-11-23T01:42:43.745Z,990.1
2022-11-23T01:43:59.000Z,990
2022-11-23T01:45:16.000Z,990.1
2022-11-23T01:46:32.000Z,990
2022-11-23T01:47:48.000Z,990.1
2022-11-23T01:49:04.000Z,990.1
2022-11-23T01:50:20.000Z,990.1
2022-11-23T01:51:37.000Z,990
2022-11-23T01:52:53.000Z,990.2
2022-11-23T01:54:09.000Z,990.1
2022-11-23T01:55:25.000Z,990.1
2022-11-23T01:56:41.000Z,990.1
2022-11-23T01:57:58.000Z,990.2
2022-11-23T01:59:13.000Z,990.2
2022-11-23T02:00:29.000Z,990.2
2022-11-23T02:01:45.000Z,990.1
2022-11-23T02:03:01.000Z,990.2
2022-11-23T02:04:17.000Z,990.2
2022-11-23T02:05:34.000Z,990.3
2022-11-23T02:06:50.000Z,990.2
2022-11-23T02:08:05.000Z,990.2
2022-11-23T02:09:21.000Z,990.2
2022-11-23T02:10:37.000Z,990.3
2022-11-23T02:11:54.000Z,990.2
2022-11-23T02:13:10.000Z,990.3
2022-11-23T02:14:26.000Z,990.3
2022-11-23T02:15:42.000Z,990.2
2022-11-23T02:16:58.000Z,990.3
2022-11-23T02:18:15.000Z,990.2
2022-11-23T02:19:31.000Z,990.3
2022-11-23T02:20:47.000Z,990.3
2022-11-23T02:22:03.000Z,990.2
2022-11-23T02:23:19.000Z,990.3
2022-11-23T02:24:35.000Z,990.3
2022-11-23T02:25:51.000Z,990.3
2022-11-23T02:27:07.000Z,990.3
2022-11-23T02:28:23.000Z,990.3
2022-11-23T02:29:39.000Z,990.3
2022-11-23T02:30:55.000Z,990.3
2022-11-23T02:32:12.000Z,990.3
2022-11-23T02:33:28.000Z,990.3
2022-11-23T02:34:44.000Z,990.3
2022-11-23T02:36:00.000Z,990.4
2022-11-23T02:37:16.000Z,990.3
2022-11-23T02:38:33.000Z,990.4
2022-11-23T02:39:49.000Z,990.4
2022-11-23T02:41:04.000Z,990.3
2022-11-23T02:42:20.000Z,990.4
2022-11-23T02:43:36.000Z,990.4
2022-11-23T02:44:53.000Z,990.4
2022-11-23T02:46:09.000Z,990.5
2022-11-23T02:47:25.000Z,990.4
2022-11-23T02:48:41.000Z,990.5
2022-11-23T02:49:57.000Z,990.5
2022-11-23T02:51:14.000Z,990.4
2022-11-23T02:52:30.000Z,990.4
2022-11-23T02:53:46.000Z,990.4
2022-11-23T02:55:02.000Z,990.4
2022-11-23T02:56:18.000Z,990.4
2022-11-23T02:57:33.000Z,990.5
2022-11-23T02:58:50.000Z,990.4
2022-11-23T03:00:06.000Z,990.5
2022-11-23T03:01:22.000Z,990.4
2022-11-23T03:02:38.000Z,990.4
2022-11-23T03:03:54.000Z,990.5
2022-11-23T03:05:11.000Z,990.5
2022-11-23T03:06:27.000Z,990.4
2022-11-23T03:07:43.000Z,990.4
2022-11-23T03:08:59.000Z,990.4
2022-11-23T03:10:15.000Z,990.5
2022-11-23T03:11:32.000Z,990.5
2022-11-23T03:12:48.000Z,990.5
2022-11-23T03:14:03.000Z,990.5
2022-11-23T03:15:19.000Z,990.5
2022-11-23T03:16:35.000Z,990.5
2022-11-23T03:17:52.000Z,990.5
2022-11-23T03:19:08.000Z,990.6
2022-11-23T03:20:24.000Z,990.5
2022-11-23T03:21:40.000Z,990.6
2022-11-23T03:22:56.000Z,990.6
2022-11-23T03:24:12.000Z,990.6
2022-11-23T03:25:29.000Z,990.6
2022-11-23T03:26:45.000Z,990.6
2022-11-23T03:28:01.000Z,990.6
2022-11-23T03:29:17.000Z,990.6
2022-11-23T03:30:32.000Z,990.7
2022-11-23T03:31:49.000Z,990.6
2022-11-23T03:33:05.000Z,990.6
2022-11-23T03:34:21.000Z,990.7
2022-11-23T03:35:37.000Z,990.6
2022-11-23T03:36:53.000Z,990.6
2022-11-23T03:38:10.000Z,990.6
2022-11-23T03:39:26.000Z,990.6
2022-11-23T03:40:42.000Z,990.6
2022-11-23T03:41:58.000Z,990.6
2022-11-23T03:43:14.000Z,990.6
2022-11-23T03:44:31.000Z,990.7
2022-11-23T03:45:47.000Z,990.6
2022-11-23T03:47:02.000Z,990.6
2022-11-23T03:48:18.000Z,990.6
2022-11-23T03:49:34.000Z,990.6
2022-11-23T03:50:50.000Z,990.6
2022-11-23T03:52:07.000Z,990.6
2022-11-23T03:53:23.000Z,990.6
2022-11-23T03:54:39.000Z,990.6
2022-11-23T03:55:55.000Z,990.6
2022-11-23T03:57:11.000Z,990.6
2022-11-23T03:58:28.000Z,990.6
2022-11-23T03:59:44.000Z,990.6
2022-11-23T04:01:00.000Z,990.6
2022-11-23T04:02:16.000Z,990.6
2022-11-23T04:03:31.000Z,990.6
2022-11-23T04:04:48.000Z,990.6
2022-11-23T04:06:04.000Z,990.6
2022-11-23T04:07:20.000Z,990.7
2022-11-23T04:08:36.000Z,990.7
2022-11-23T04:09:52.000Z,990.6
2022-11-23T04:11:08.000Z,990.6
2022-11-23T04:12:25.000Z,990.6
2022-11-23T04:13:41.000Z,990.6
2022-11-23T04:14:57.000Z,990.6
2022-11-23T04:16:13.000Z,990.7
2022-11-23T04:17:29.000Z,990.7
2022-11-23T04:18:46.000Z,990.6
2022-11-23T04:20:01.000Z,990.7
2022-11-23T04:21:17.000Z,990.7
2022-11-23T04:22:33.000Z,990.6
2022-11-23T04:23:49.000Z,990.6
2022-11-23T04:25:06.000Z,990.6
2022-11-23T04:26:22.000Z,990.6
2022-11-23T04:27:38.000Z,990.6
2022-11-23T04:28:54.000Z,990.6
2022-11-23T04:30:10.000Z,990.6
2022-11-23T04:31:26.000Z,990.6
2022-11-23T04:32:43.000Z,990.6
2022-11-23T04:33:59.000Z,990.5
2022-11-23T04:35:15.000Z,990.6
2022-11-23T04:36:30.000Z,990.5
2022-11-23T04:37:46.000Z,990.5
2022-11-23T04:39:03.000Z,990.5
2022-11-23T04:40:19.000Z,990.6
2022-11-23T04:41:35.000Z,990.6
2022-11-23T04:42:51.000Z,990.6
2022-11-23T04:44:07.000Z,990.7
2022-11-23T04:45:24.000Z,990.7
2022-11-23T04:46:40.000Z,990.7
2022-11-23T04:47:56.000Z,990.8
2022-11-23T04:49:12.000Z,990.7
2022-11-23T04:50:28.000Z,990.8
2022-11-23T04:51:45.000Z,990.7
2022-11-23T04:53:00.000Z,990.7
2022-11-23T04:54:16.000Z,990.8
2022-11-23T04:55:32.000Z,990.8
2022-11-23T04:56:48.000Z,990.8
2022-11-23T04:58:04.000Z,990.9
2022-11-23T04:59:21.000Z,990.8
2022-11-23T05:00:37.000Z,990.8
2022-11-23T05:01:53.000Z,990.9
2022-11-23T05:03:09.000Z,990.8
2022-11-23T05:04:25.000Z,990.9
2022-11-23T05:05:42.000Z,990.9
2022-11-23T05:06:58.000Z,990.9
2022-11-23T05:08:14.000Z,990.9
2022-11-23T05:09:29.000Z,990.8
2022-11-23T05:10:45.000Z,990.9
2022-11-23T05:12:02.000Z,990.8
2022-11-23T05:13:18.000Z,990.9
2022-11-23T05:14:34.000Z,990.9
2022-11-23T05:15:50.000Z,990.8
2022-11-23T05:17:06.000Z,990.9
2022-11-23T05:18:22.000Z,990.9
2022-11-23T05:19:39.000Z,990.9
2022-11-23T05:20:55.000Z,990.9
2022-11-23T05:22:11.000Z,990.9
2022-11-23T05:23:27.000Z,990.9
2022-11-23T05:24:43.000Z,990.9
2022-11-23T05:25:59.000Z,990.9
2022-11-23T05:27:15.000Z,990.9
2022-11-23T05:28:31.000Z,990.9
2022-11-23T05:29:47.000Z,990.9
2022-11-23T05:31:03.000Z,991
2022-11-23T05:32:20.000Z,990.9
2022-11-23T05:33:36.000Z,990.9
2022-11-23T05:34:52.000Z,990.9
2022-11-23T05:36:08.000Z,991
2022-11-23T05:37:24.000Z,990.9
2022-11-23T05:38:41.000Z,991.1
2022-11-23T05:39:57.000Z,991
2022-11-23T05:41:13.000Z,991
2022-11-23T05:42:28.000Z,991
2022-11-23T05:43:44.000Z,991.1
2022-11-23T05:45:00.000Z,991
2022-11-23T05:46:17.000Z,991
2022-11-23T05:47:33.000Z,991
2022-11-23T05:48:49.000Z,991.1
2022-11-23T05:50:05.000Z,991
2022-11-23T05:51:21.000Z,990.9
2022-11-23T05:52:38.000Z,991
2022-11-23T05:53:54.000Z,991
2022-11-23T05:55:10.000Z,991
2022-11-23T05:56:26.000Z,991
2022-11-23T05:57:42.000Z,991
2022-11-23T05:58:58.000Z,991
2022-11-23T06:00:14.000Z,991
2022-11-23T06:01:30.000Z,991
2022-11-23T06:02:46.000Z,991.1
2022-11-23T06:04:02.000Z,991.1
2022-11-23T06:05:18.000Z,991.1
2022-11-23T06:06:35.000Z,991.1
2022-11-23T06:07:51.000Z,991.1
2022-11-23T06:09:07.000Z,991.2
2022-11-23T06:10:23.000Z,991.1
2022-11-23T06:11:39.000Z,991.1
2022-11-23T06:12:56.000Z,991.1
2022-11-23T06:14:12.000Z,991.1
2022-11-23T06:15:27.000Z,991.1
2022-11-23T06:16:43.000Z,991.1
2022-11-23T06:17:59.000Z,991.1
2022-11-23T06:19:16.000Z,991.1
2022-11-23T06:20:32.000Z,991.1
2022-11-23T06:21:48.000Z,991.1
2022-11-23T06:23:03.000Z,991.1
2022-11-23T06:24:19.000Z,991.2
2022-11-23T06:25:36.000Z,991.1
2022-11-23T06:26:52.000Z,991.1
2022-11-23T06:28:08.000Z,991.1
2022-11-23T06:29:24.000Z,991.2
2022-11-23T06:30:40.000Z,991.1
2022-11-23T06:31:56.000Z,991.2
2022-11-23T06:33:13.000Z,991.1
2022-11-23T06:34:29.000Z,991
2022-11-23T06:35:45.000Z,991.1
2022-11-23T06:37:01.000Z,991.2
2022-11-23T06:38:17.000Z,991.1
2022-11-23T06:39:33.000Z,991.2
2022-11-23T06:40:49.000Z,991.2
2022-11-23T06:42:05.000Z,991.2
2022-11-23T06:43:21.000Z,991.2
2022-11-23T06:44:37.000Z,991.2
2022-11-23T06:45:54.000Z,991.2
2022-11-23T06:47:10.000Z,991.3
2022-11-23T06:48:26.000Z,991.2
2022-11-23T06:49:42.000Z,991.2
2022-11-23T06:50:58.000Z,991.3
2022-11-23T06:52:14.000Z,991.2
2022-11-23T06:53:31.000Z,991.3
2022-11-23T06:54:47.000Z,991.3
2022-11-23T06:56:02.000Z,991.3
2022-11-23T06:57:18.000Z,991.3
2022-11-23T06:58:34.000Z,991.3
2022-11-23T06:59:51.000Z,991.2
2022-11-23T07:01:07.000Z,991.3
2022-11-23T07:02:23.000Z,991.3
2022-11-23T07:03:39.000Z,991.2
2022-11-23T07:04:55.000Z,991.3
2022-11-23T07:06:12.000Z,991.3
2022-11-23T07:07:28.000Z,991.3
2022-11-23T07:08:44.000Z,991.3
2022-11-23T07:10:00.000Z,991.3
2022-11-23T07:11:16.000Z,991.4
2022-11-23T07:12:32.000Z,991.3
2022-11-23T07:13:48.000Z,991.4
2022-11-23T07:15:04.000Z,991.4
2022-11-23T07:16:20.000Z,991.4
2022-11-23T07:17:36.000Z,991.4
2022-11-23T07:18:52.000Z,991.4
2022-11-23T07:20:09.000Z,991.4
2022-11-23T07:21:25.000Z,991.4
2022-11-23T07:22:41.000Z,991.5
2022-11-23T07:23:57.000Z,991.6
2022-11-23T07:25:13.000Z,991.5
2022-11-23T07:26:30.000Z,991.5
2022-11-23T07:27:46.000Z,991.6
2022-11-23T07:29:01.000Z,991.5
2022-11-23T07:30:17.000Z,991.6
2022-11-23T07:31:33.000Z,991.6
2022-11-23T07:32:50.000Z,991.6
2022-11-23T07:34:06.000Z,991.6
2022-11-23T07:35:22.000Z,991.5
2022-11-23T07:36:38.000Z,991.5
2022-11-23T07:37:54.000Z,991.6
2022-11-23T07:39:10.000Z,991.6
2022-11-23T07:40:27.000Z,991.6
2022-11-23T07:41:43.000Z,991.6
2022-11-23T07:42:59.000Z,991.6
2022-11-23T07:44:15.000Z,991.6
2022-11-23T07:45:30.000Z,991.7
2022-11-23T07:46:47.000Z,991.6
2022-11-23T07:48:03.000Z,991.7
2022-11-23T07:49:19.000Z,991.6
2022-11-23T07:50:35.000Z,991.7
2022-11-23T07:51:51.000Z,991.7
2022-11-23T07:53:08.000Z,991.7
2022-11-23T07:54:24.000Z,991.7
2022-11-23T07:55:40.000Z,991.7
2022-11-23T07:56:56.000Z,991.7
2022-11-23T07:58:12.000Z,991.8
2022-11-23T07:59:28.000Z,991.7
2022-11-23T08:00:45.000Z,991.6
2022-11-23T08:02:00.000Z,991.7
2022-11-23T08:03:16.000Z,991.7
2022-11-23T08:04:32.000Z,991.8
2022-11-23T08:05:48.000Z,991.8
2022-11-23T08:07:05.000Z,991.8
2022-11-23T08:08:21.000Z,991.7
2022-11-23T08:09:37.000Z,991.8
2022-11-23T08:10:53.000Z,991.8
2022-11-23T08:12:09.000Z,991.9
2022-11-23T08:13:26.000Z,991.8
2022-11-23T08:14:42.000Z,991.8
2022-11-23T08:15:58.000Z,991.8
2022-11-23T08:17:14.000Z,991.9
2022-11-23T08:18:29.000Z,991.8
2022-11-23T08:19:46.000Z,991.9
2022-11-23T08:21:02.000Z,991.9
2022-11-23T08:22:18.000Z,991.9
2022-11-23T08:23:34.000Z,991.9
2022-11-23T08:24:50.000Z,992
2022-11-23T08:26:06.000Z,991.9
2022-11-23T08:27:23.000Z,992
2022-11-23T08:28:39.000Z,992
2022-11-23T08:29:55.000Z,992
2022-11-23T08:31:11.000Z,992
2022-11-23T08:32:27.000Z,991.9
2022-11-23T08:33:44.000Z,992
2022-11-23T08:34:59.000Z,992
2022-11-23T08:36:15.000Z,992
2022-11-23T08:37:31.000Z,992
2022-11-23T08:38:47.000Z,992
2022-11-23T08:40:04.000Z,992
2022-11-23T08:41:20.000Z,992
2022-11-23T08:42:36.000Z,991.9
2022-11-23T08:43:52.000Z,992
2022-11-23T08:45:08.000Z,992
2022-11-23T08:46:24.000Z,992.1
2022-11-23T08:47:41.000Z,992.1
2022-11-23T08:48:57.000Z,992.1
2022-11-23T08:50:13.000Z,991.9
2022-11-23T08:51:28.000Z,992
2022-11-23T08:52:44.000Z,992
2022-11-23T08:54:01.000Z,992
2022-11-23T08:55:17.000Z,992.1
2022-11-23T08:56:33.000Z,992
2022-11-23T08:57:49.000Z,992.1
2022-11-23T08:59:05.000Z,992
2022-11-23T09:00:22.000Z,992
2022-11-23T09:01:38.000Z,992
2022-11-23T09:02:54.000Z,992.1
2022-11-23T09:04:10.000Z,992
2022-11-23T09:05:26.000Z,992
2022-11-23T09:06:42.000Z,992
2022-11-23T09:07:58.000Z,992.1
2022-11-23T09:09:14.000Z,992
2022-11-23T09:10:30.000Z,992
2022-11-23T09:11:46.000Z,992
2022-11-23T09:13:02.000Z,991.9
2022-11-23T09:14:19.000Z,991.9
2022-11-23T09:15:35.000Z,992
2022-11-23T09:16:51.000Z,991.9
2022-11-23T09:18:07.000Z,992
2022-11-23T09:19:23.000Z,992
2022-11-23T09:20:40.000Z,991.9
2022-11-23T09:21:56.000Z,992
2022-11-23T09:23:12.000Z,992
2022-11-23T09:24:27.000Z,992.1
2022-11-23T09:25:43.000Z,992
2022-11-23T09:27:00.000Z,992
2022-11-23T09:28:16.000Z,992
2022-11-23T09:29:32.000Z,992
2022-11-23T09:30:48.000Z,992
2022-11-23T09:32:04.000Z,992
2022-11-23T09:33:20.000Z,992
2022-11-23T09:34:37.000Z,992
2022-11-23T09:35:53.000Z,992.1
2022-11-23T09:37:09.000Z,992
2022-11-23T09:38:25.000Z,992
2022-11-23T09:39:41.000Z,992
2022-11-23T09:40:57.000Z,992
2022-11-23T09:42:13.000Z,991.9
2022-11-23T09:43:29.000Z,991.9
2022-11-23T09:44:45.000Z,992
2022-11-23T09:46:01.000Z,992
2022-11-23T09:47:18.000Z,991.9
2022-11-23T09:48:34.000Z,992
2022-11-23T09:49:50.000Z,991.9
2022-11-23T09:51:06.000Z,991.8
2022-11-23T09:52:22.000Z,991.9
2022-11-23T09:53:38.000Z,991.9
2022-11-23T09:54:55.000Z,991.9
2022-11-23T09:56:11.000Z,991.9
2022-11-23T09:57:26.000Z,991.9
2022-11-23T09:58:42.000Z,991.7
2022-11-23T09:59:58.000Z,991.8
2022-11-23T10:01:15.000Z,991.8
2022-11-23T10:02:31.000Z,991.8
2022-11-23T10:05:03.000Z,991.8
2022-11-23T10:06:19.000Z,991.8
2022-11-23T10:07:36.000Z,991.8
2022-11-23T10:08:52.000Z,991.8
2022-11-23T10:10:08.000Z,991.8
2022-11-23T10:11:24.000Z,991.8
2022-11-23T10:12:40.000Z,991.8
2022-11-23T10:13:55.000Z,991.7
2022-11-23T10:15:12.000Z,991.8
2022-11-23T10:16:28.000Z,991.7
2022-11-23T10:17:44.000Z,991.8
2022-11-23T10:19:00.000Z,991.7
2022-11-23T10:20:16.000Z,991.7
2022-11-23T10:21:33.000Z,991.7
2022-11-23T10:22:49.000Z,991.6
2022-11-23T10:24:05.000Z,991.7
2022-11-23T10:25:21.000Z,991.7
2022-11-23T10:26:37.000Z,991.7
2022-11-23T10:27:54.000Z,991.6
2022-11-23T10:29:10.000Z,991.7
2022-11-23T10:30:25.000Z,991.6
2022-11-23T10:31:41.000Z,991.8
2022-11-23T10:32:57.000Z,991.7
2022-11-23T10:34:14.000Z,991.8
2022-11-23T10:35:30.000Z,991.7
2022-11-23T10:36:46.000Z,991.7
2022-11-23T10:38:01.000Z,991.7
2022-11-23T10:39:17.000Z,991.6
2022-11-23T10:40:33.000Z,991.7
2022-11-23T10:41:50.000Z,991.6
2022-11-23T10:43:06.000Z,991.6
2022-11-23T10:44:22.000Z,991.5
2022-11-23T10:45:38.000Z,991.6
2022-11-23T10:46:54.000Z,991.6
2022-11-23T10:48:11.000Z,991.6
2022-11-23T10:49:27.000Z,991.6
2022-11-23T10:50:43.000Z,991.6
2022-11-23T10:51:59.000Z,991.6
2022-11-23T10:53:15.000Z,991.6
2022-11-23T10:54:31.000Z,991.6
2022-11-23T10:55:47.000Z,991.5
2022-11-23T10:57:03.000Z,991.7
2022-11-23T10:58:19.000Z,991.8
2022-11-23T10:59:35.000Z,991.6
2022-11-23T11:00:51.000Z,991.5
2022-11-23T11:02:08.000Z,991.6
2022-11-23T11:03:24.000Z,991.7
2022-11-23T11:04:40.000Z,991.6
2022-11-23T11:05:56.000Z,991.6
2022-11-23T11:07:12.000Z,991.3
2022-11-23T11:08:29.000Z,991.6
2022-11-23T11:09:45.000Z,991.6
2022-11-23T11:11:00.000Z,991.5
2022-11-23T11:12:16.000Z,991.5
2022-11-23T11:13:32.000Z,991.5
2022-11-23T11:14:49.000Z,991.5
2022-11-23T11:16:05.000Z,991.5
2022-11-23T11:17:21.000Z,991.6
2022-11-23T11:18:37.000Z,991.5
2022-11-23T11:19:53.000Z,991.4
2022-11-23T11:21:09.000Z,991.4
2022-11-23T11:22:26.000Z,991.4
2022-11-23T11:23:42.000Z,991.4
2022-11-23T11:24:58.000Z,991.5
2022-11-23T11:26:14.000Z,991.5
2022-11-23T11:27:29.000Z,991.4
2022-11-23T11:28:46.000Z,991.5
2022-11-23T11:30:02.000Z,991.5
2022-11-23T11:31:18.000Z,991.4
2022-11-23T11:32:34.000Z,991.3
2022-11-23T11:33:50.000Z,991.4
2022-11-23T11:35:07.000Z,991.5
2022-11-23T11:36:23.000Z,991.4
2022-11-23T11:37:39.000Z,991.4
2022-11-23T11:38:55.000Z,991.4
2022-11-23T11:40:11.000Z,991.4
2022-11-23T11:41:28.000Z,991.4
2022-11-23T11:42:44.000Z,991.3
2022-11-23T11:43:59.000Z,991.3
2022-11-23T11:45:15.000Z,991.3
2022-11-23T11:46:31.000Z,991.3
2022-11-23T11:47:47.000Z,991.2
2022-11-23T11:49:04.000Z,991.3
2022-11-23T11:50:20.000Z,991.1
2022-11-23T11:51:36.000Z,991.1
2022-11-23T11:52:52.000Z,991.1
2022-11-23T11:54:08.000Z,991.1
2022-11-23T11:55:25.000Z,991
2022-11-23T11:56:41.000Z,991
2022-11-23T11:57:57.000Z,991
2022-11-23T11:59:13.000Z,991
2022-11-23T12:00:28.000Z,990.9
2022-11-23T12:01:45.000Z,991
2022-11-23T12:03:01.000Z,991.1
2022-11-23T12:04:17.000Z,990.9
2022-11-23T12:05:33.000Z,991
2022-11-23T12:06:49.000Z,991
2022-11-23T12:08:05.000Z,990.9
2022-11-23T12:09:22.000Z,990.9
2022-11-23T12:10:38.000Z,991
2022-11-23T12:11:54.000Z,990.8
2022-11-23T12:13:10.000Z,990.9
2022-11-23T12:14:26.000Z,990.8
2022-11-23T12:15:43.000Z,990.9
2022-11-23T12:16:58.000Z,990.8
2022-11-23T12:18:14.000Z,990.9
2022-11-23T12:19:30.000Z,990.9
2022-11-23T12:20:46.000Z,990.8
2022-11-23T12:22:03.000Z,990.8
2022-11-23T12:23:19.000Z,990.8
2022-11-23T12:24:35.000Z,990.9
2022-11-23T12:25:51.000Z,990.8
2022-11-23T12:27:07.000Z,990.7
2022-11-23T12:28:23.000Z,990.7
2022-11-23T12:29:40.000Z,990.7
2022-11-23T12:30:56.000Z,990.7
2022-11-23T12:32:12.000Z,990.7
2022-11-23T12:33:27.000Z,990.6
2022-11-23T12:34:43.000Z,990.7
2022-11-23T12:36:00.000Z,990.6
2022-11-23T12:37:16.000Z,990.6
2022-11-23T12:38:32.000Z,990.6
2022-11-23T12:39:48.000Z,990.6
2022-11-23T12:41:04.000Z,990.6
2022-11-23T12:42:21.000Z,990.7
2022-11-23T12:43:37.000Z,990.8
2022-11-23T12:44:53.000Z,990.7
2022-11-23T12:46:09.000Z,990.8
2022-11-23T12:47:25.000Z,990.9
2022-11-23T12:48:42.000Z,990.9
2022-11-23T12:49:57.000Z,990.9
2022-11-23T12:51:13.000Z,990.9
2022-11-23T12:52:29.000Z,990.9
2022-11-23T12:53:45.000Z,990.9
2022-11-23T12:55:01.000Z,990.9
2022-11-23T12:56:18.000Z,990.9
2022-11-23T12:57:34.000Z,990.9
2022-11-23T12:58:50.000Z,991
2022-11-23T13:00:06.000Z,990.8
2022-11-23T13:01:22.000Z,991
2022-11-23T13:02:39.000Z,990.9
2022-11-23T13:03:55.000Z,990.9
2022-11-23T13:05:11.000Z,991
2022-11-23T13:06:26.000Z,991
2022-11-23T13:07:42.000Z,991
2022-11-23T13:08:59.000Z,991
2022-11-23T13:10:15.000Z,991
2022-11-23T13:11:31.000Z,991
2022-11-23T13:12:47.000Z,991.1
2022-11-23T13:14:03.000Z,991
2022-11-23T13:15:19.000Z,991
2022-11-23T13:16:36.000Z,990.9
2022-11-23T13:17:52.000Z,991
2022-11-23T13:19:08.000Z,990.8
2022-11-23T13:20:24.000Z,990.9
2022-11-23T13:21:40.000Z,990.9
2022-11-23T13:22:56.000Z,990.8
2022-11-23T13:24:12.000Z,990.9
2022-11-23T13:25:28.000Z,990.9
2022-11-23T13:26:44.000Z,990.9
2022-11-23T13:28:00.000Z,990.8
2022-11-23T13:29:17.000Z,990.9
2022-11-23T13:30:33.000Z,990.9
2022-11-23T13:31:49.000Z,990.9
2022-11-23T13:33:05.000Z,990.8
2022-11-23T13:34:21.000Z,990.8
2022-11-23T13:35:38.000Z,990.8
2022-11-23T13:36:54.000Z,990.8
2022-11-23T13:38:10.000Z,990.8
2022-11-23T13:39:25.000Z,990.7
2022-11-23T13:40:41.000Z,990.9
2022-11-23T13:41:57.000Z,990.9
2022-11-23T13:43:14.000Z,991
2022-11-23T13:44:30.000Z,990.9
2022-11-23T13:45:46.000Z,990.8
2022-11-23T13:47:02.000Z,990.8
2022-11-23T13:48:18.000Z,990.8
2022-11-23T13:49:35.000Z,990.8
2022-11-23T13:50:51.000Z,990.9
2022-11-23T13:52:07.000Z,990.8
2022-11-23T13:53:23.000Z,990.8
2022-11-23T13:54:39.000Z,990.6
2022-11-23T13:55:55.000Z,990.6
2022-11-23T13:57:11.000Z,990.5
2022-11-23T13:58:27.000Z,990.5
2022-11-23T13:59:43.000Z,990.5
2022-11-23T14:00:59.000Z,990.6
2022-11-23T14:02:15.000Z,990.6
2022-11-23T14:03:32.000Z,990.6
2022-11-23T14:04:48.000Z,990.5
2022-11-23T14:06:04.000Z,990.5
2022-11-23T14:07:20.000Z,990.5
2022-11-23T14:08:36.000Z,990.4
2022-11-23T14:09:53.000Z,990.6
2022-11-23T14:11:09.000Z,990.6
2022-11-23T14:12:24.000Z,990.5
2022-11-23T14:13:40.000Z,990.5
2022-11-23T14:14:56.000Z,990.5
2022-11-23T14:16:13.000Z,990.5
2022-11-23T14:17:29.000Z,990.4
2022-11-23T14:18:45.000Z,990.5
2022-11-23T14:20:01.000Z,990.6
2022-11-23T14:21:17.000Z,990.6
2022-11-23T14:22:34.000Z,990.6
2022-11-23T14:23:50.000Z,990.5
2022-11-23T14:25:06.000Z,990.6
2022-11-23T14:26:22.000Z,990.7
2022-11-23T14:27:38.000Z,990.7
2022-11-23T14:28:53.000Z,990.6
2022-11-23T14:30:10.000Z,990.6
2022-11-23T14:31:26.000Z,990.7
2022-11-23T14:32:42.000Z,990.7
2022-11-23T14:33:58.000Z,990.7
2022-11-23T14:35:14.000Z,990.6
2022-11-23T14:36:31.000Z,990.7
2022-11-23T14:37:47.000Z,990.7
2022-11-23T14:39:03.000Z,990.7
2022-11-23T14:40:19.000Z,990.7
2022-11-23T14:41:35.000Z,990.7
2022-11-23T14:42:52.000Z,990.7
2022-11-23T14:44:08.000Z,990.6
2022-11-23T14:45:24.000Z,990.6
2022-11-23T14:46:39.000Z,990.7
2022-11-23T14:47:55.000Z,990.7
2022-11-23T14:49:12.000Z,990.7
2022-11-23T14:50:28.000Z,990.7
2022-11-23T14:51:44.000Z,990.7
2022-11-23T14:52:59.000Z,990.7
2022-11-23T14:54:15.000Z,990.8
2022-11-23T14:55:31.000Z,990.8
2022-11-23T14:56:48.000Z,990.8
2022-11-23T14:58:04.000Z,990.9
2022-11-23T14:59:20.000Z,990.8
2022-11-23T15:00:36.000Z,990.8
2022-11-23T15:01:52.000Z,990.9
2022-11-23T15:03:09.000Z,990.9
2022-11-23T15:04:25.000Z,990.9
2022-11-23T15:05:41.000Z,990.9
2022-11-23T15:06:57.000Z,990.9
2022-11-23T15:08:13.000Z,991
2022-11-23T15:09:29.000Z,990.9
2022-11-23T15:10:45.000Z,990.9
2022-11-23T15:12:01.000Z,990.9
2022-11-23T15:13:17.000Z,990.9
2022-11-23T15:14:33.000Z,990.9
2022-11-23T15:15:50.000Z,990.9
2022-11-23T15:17:06.000Z,991
2022-11-23T15:18:22.000Z,991
2022-11-23T15:19:38.000Z,990.9
2022-11-23T15:20:54.000Z,991
2022-11-23T15:22:10.000Z,991
2022-11-23T15:23:27.000Z,991
2022-11-23T15:24:43.000Z,991
2022-11-23T15:25:59.000Z,991
2022-11-23T15:27:14.000Z,991
2022-11-23T15:28:30.000Z,990.9
2022-11-23T15:29:47.000Z,991
2022-11-23T15:31:03.000Z,990.9
2022-11-23T15:32:19.000Z,990.9
2022-11-23T15:33:35.000Z,991
2022-11-23T15:34:51.000Z,991
2022-11-23T15:36:08.000Z,990.9
2022-11-23T15:37:24.000Z,991
2022-11-23T15:38:40.000Z,991
2022-11-23T15:39:56.000Z,991
2022-11-23T15:41:12.000Z,991.1
2022-11-23T15:42:28.000Z,991.1
2022-11-23T15:43:45.000Z,991
2022-11-23T15:45:00.000Z,991.1
2022-11-23T15:46:16.000Z,991.2
2022-11-23T15:47:32.000Z,991.2
2022-11-23T15:48:48.000Z,991.3
2022-11-23T15:50:05.000Z,991.3
2022-11-23T15:51:21.000Z,991.3
2022-11-23T15:52:37.000Z,991.3
2022-11-23T15:53:53.000Z,991.3
2022-11-23T15:55:09.000Z,991.4
2022-11-23T15:56:26.000Z,991.4
2022-11-23T15:57:42.000Z,991.4
2022-11-23T15:58:58.000Z,991.4
2022-11-23T16:00:14.000Z,991.4
2022-11-23T16:01:29.000Z,991.4
2022-11-23T16:02:46.000Z,991.4
2022-11-23T16:04:02.000Z,991.4
2022-11-23T16:05:18.000Z,991.4
2022-11-23T16:06:34.000Z,991.5
2022-11-23T16:07:50.000Z,991.4
2022-11-23T16:09:06.000Z,991.5
2022-11-23T16:10:23.000Z,991.4
2022-11-23T16:11:39.000Z,991.5
2022-11-23T16:12:55.000Z,991.4
2022-11-23T16:14:11.000Z,991.5
2022-11-23T16:15:27.000Z,991.5
2022-11-23T16:16:44.000Z,991.5
2022-11-23T16:17:59.000Z,991.5
2022-11-23T16:19:15.000Z,991.5
2022-11-23T16:20:31.000Z,991.6
2022-11-23T16:21:47.000Z,991.5
2022-11-23T16:23:04.000Z,991.5
2022-11-23T16:24:20.000Z,991.6
2022-11-23T16:25:36.000Z,991.6
2022-11-23T16:26:52.000Z,991.5
2022-11-23T16:28:08.000Z,991.6
2022-11-23T16:29:25.000Z,991.7
2022-11-23T16:30:41.000Z,991.7